createdAt,value
2019-05-11T00:00:32.731Z,28.67
2019-05-11T00:02:59.298Z,30.50
2019-05-11T00:05:25.901Z,27.15
2019-05-11T00:07:52.137Z,28.65
2019-05-11T00:10:18.430Z,29.10
2019-05-11T00:12:44.615Z,30.37
2019-05-11T00:15:10.919Z,31.17
2019-05-11T00:17:37.475Z,33.67
2019-05-11T00:20:06.913Z,32.85
2019-05-11T00:22:33.316Z,34.40
2019-05-11T00:24:59.844Z,34.15
2019-05-11T00:27:26.090Z,31.87
2019-05-11T00:29:52.352Z,31.57
2019-05-11T00:32:22.616Z,31.12
2019-05-11T00:34:47.257Z,34.45
2019-05-11T00:37:13.842Z,34.92
2019-05-11T00:39:40.059Z,31.17
2019-05-11T00:42:06.329Z,30.02
2019-05-11T00:44:32.935Z,33.65
2019-05-11T00:46:59.188Z,32.45
2019-05-11T00:49:25.387Z,32.63
2019-05-11T00:51:51.654Z,31.97
2019-05-11T00:54:17.887Z,30.82
2019-05-11T00:56:44.119Z,31.85
2019-05-11T00:59:21.381Z,28.67
2019-05-11T01:01:39.019Z,27.25
2019-05-11T01:04:05.656Z,25.82
2019-05-11T01:06:32.321Z,24.35
2019-05-11T01:08:58.928Z,24.77
2019-05-11T01:11:25.167Z,24.80
2019-05-11T01:13:51.375Z,23.95
2019-05-11T01:16:17.629Z,24.70
2019-05-11T01:18:44.263Z,26.30
2019-05-11T01:21:10.877Z,24.65
2019-05-11T01:23:37.139Z,23.67
2019-05-11T01:26:03.350Z,26.45
2019-05-11T01:28:29.600Z,26.33
2019-05-11T01:30:55.814Z,27.90
2019-05-11T01:33:22.427Z,27.48
2019-05-11T01:35:51.083Z,28.62
2019-05-11T01:38:16.710Z,30.50
2019-05-11T01:40:57.762Z,26.48
2019-05-11T01:43:11.445Z,28.85
2019-05-11T01:45:37.777Z,26.70
2019-05-11T01:48:04.335Z,26.93
2019-05-11T01:50:30.539Z,24.30
2019-05-11T01:52:56.792Z,26.37
2019-05-11T01:55:23.424Z,27.10
2019-05-11T01:57:50.096Z,25.50
2019-05-11T02:00:16.877Z,25.08
2019-05-11T02:02:43.345Z,27.27
2019-05-11T02:05:28.518Z,26.85
2019-05-11T02:07:55.746Z,27.87
2019-05-11T02:10:22.181Z,27.73
2019-05-11T02:12:48.751Z,28.60
2019-05-11T02:15:15.348Z,30.50
2019-05-11T02:17:41.606Z,29.45
2019-05-11T02:20:07.924Z,31.77
2019-05-11T02:22:34.480Z,31.87
2019-05-11T02:25:01.104Z,30.40
2019-05-11T02:27:27.380Z,30.15
2019-05-11T02:29:53.965Z,30.12
2019-05-11T02:32:20.228Z,30.32
2019-05-11T02:34:46.835Z,29.42
2019-05-11T02:37:13.063Z,29.10
2019-05-11T02:39:39.808Z,30.02
2019-05-11T02:42:06.531Z,29.80
2019-05-11T02:44:33.015Z,31.25
2019-05-11T02:46:59.628Z,33.13
2019-05-11T02:49:28.130Z,32.93
2019-05-11T02:51:54.745Z,33.85
2019-05-11T02:54:21.268Z,32.25
2019-05-11T02:56:47.861Z,33.35
2019-05-11T02:59:14.441Z,34.08
2019-05-11T03:01:40.695Z,35.05
2019-05-11T03:04:06.940Z,34.58
2019-05-11T03:06:33.595Z,31.52
2019-05-11T03:08:59.802Z,32.90
2019-05-11T03:11:26.443Z,31.97
2019-05-11T03:13:53.064Z,34.50
2019-05-11T03:16:19.251Z,35.48
2019-05-11T03:18:45.531Z,33.58
2019-05-11T03:21:12.140Z,37.95
2019-05-11T03:23:38.397Z,35.65
2019-05-11T03:26:05.117Z,37.15
2019-05-11T03:28:31.708Z,33.67
2019-05-11T03:30:58.297Z,31.93
2019-05-11T03:33:25.077Z,34.05
2019-05-11T03:35:51.573Z,30.80
2019-05-11T03:38:17.796Z,33.15
2019-05-11T03:40:44.058Z,33.50
2019-05-11T03:43:10.680Z,34.33
2019-05-11T03:45:38.152Z,37.30
2019-05-11T03:48:04.782Z,35.30
2019-05-11T03:50:31.431Z,34.63
2019-05-11T03:52:58.023Z,37.45
2019-05-11T03:55:24.305Z,36.23
2019-05-11T03:57:50.915Z,35.88
2019-05-11T04:00:17.367Z,32.10
2019-05-11T04:02:43.665Z,29.95
2019-05-11T04:05:10.452Z,34.00
2019-05-11T04:07:37.048Z,34.35
2019-05-11T04:10:05.585Z,34.03
2019-05-11T04:12:35.173Z,34.40
2019-05-11T04:15:01.096Z,36.00
2019-05-11T04:17:27.802Z,36.28
2019-05-11T04:19:54.352Z,33.18
2019-05-11T04:22:20.748Z,34.58
2019-05-11T04:24:46.962Z,36.08
2019-05-11T04:27:18.929Z,34.45
2019-05-11T04:29:42.544Z,35.90
2019-05-11T04:32:08.782Z,31.65
2019-05-11T04:34:35.020Z,33.98
2019-05-11T04:37:01.745Z,35.20
2019-05-11T04:39:27.952Z,33.50
2019-05-11T04:41:54.080Z,33.40
2019-05-11T04:44:20.344Z,35.28
2019-05-11T04:46:46.956Z,33.23
2019-05-11T04:49:13.216Z,33.15
2019-05-11T04:51:39.821Z,32.55
2019-05-11T04:54:06.061Z,36.90
2019-05-11T04:56:32.713Z,34.18
2019-05-11T04:58:59.336Z,34.83
2019-05-11T05:01:25.700Z,32.13
2019-05-11T05:03:54.090Z,35.85
2019-05-11T05:06:23.995Z,32.03
2019-05-11T05:08:48.742Z,28.70
2019-05-11T05:11:14.975Z,31.25
2019-05-11T05:13:41.227Z,34.30
2019-05-11T05:16:07.436Z,33.67
2019-05-11T05:18:33.708Z,35.58
2019-05-11T05:21:00.318Z,29.92
2019-05-11T05:23:26.963Z,32.50
2019-05-11T05:25:53.580Z,30.90
2019-05-11T05:28:19.842Z,31.65
2019-05-11T05:30:46.470Z,29.90
2019-05-11T05:33:13.089Z,29.30
2019-05-11T05:35:39.343Z,31.85
2019-05-11T05:38:05.983Z,31.65
2019-05-11T05:40:32.619Z,30.02
2019-05-11T05:42:59.226Z,30.92
2019-05-11T05:45:25.501Z,29.48
2019-05-11T05:47:52.104Z,28.45
2019-05-11T05:50:18.486Z,29.42
2019-05-11T05:52:44.964Z,27.10
2019-05-11T05:55:11.286Z,30.00
2019-05-11T05:57:37.859Z,30.92
2019-05-11T06:00:05.571Z,29.98
2019-05-11T06:02:31.953Z,32.95
2019-05-11T06:04:58.567Z,33.55
2019-05-11T06:07:24.823Z,30.60
2019-05-11T06:09:50.933Z,34.40
2019-05-11T06:12:17.255Z,32.15
2019-05-11T06:14:43.607Z,32.80
2019-05-11T06:17:10.111Z,32.53
2019-05-11T06:19:36.439Z,36.10
2019-05-11T06:22:02.987Z,34.98
2019-05-11T06:24:29.219Z,33.25
2019-05-11T06:26:55.471Z,33.70
2019-05-11T06:29:22.098Z,32.00
2019-05-11T06:31:48.757Z,31.48
2019-05-11T06:34:14.938Z,37.17
2019-05-11T06:36:41.207Z,35.25
2019-05-11T06:39:07.907Z,33.88
2019-05-11T06:41:35.480Z,40.00
2019-05-11T06:44:02.468Z,34.85
2019-05-11T06:46:28.950Z,34.92
2019-05-11T06:48:55.231Z,33.15
2019-05-11T06:51:21.514Z,32.63
2019-05-11T06:53:47.660Z,36.13
2019-05-11T06:56:13.887Z,32.58
2019-05-11T06:58:40.091Z,37.30
2019-05-11T07:01:06.428Z,35.15
2019-05-11T07:03:32.990Z,35.95
2019-05-11T07:05:59.207Z,32.73
2019-05-11T07:08:25.461Z,35.73
2019-05-11T07:10:51.685Z,32.65
2019-05-11T07:13:17.920Z,31.97
2019-05-11T07:15:44.630Z,32.73
2019-05-11T07:18:11.195Z,35.48
2019-05-11T07:20:49.436Z,34.15
2019-05-11T07:23:05.671Z,35.92
2019-05-11T07:25:32.035Z,36.25
2019-05-11T07:27:58.536Z,33.90
2019-05-11T07:30:24.849Z,34.83
2019-05-11T07:32:50.991Z,32.78
2019-05-11T07:35:18.805Z,37.38
2019-05-11T07:37:47.712Z,35.58
2019-05-11T07:40:13.583Z,33.83
2019-05-11T07:42:39.783Z,32.03
2019-05-11T07:45:08.905Z,31.12
2019-05-11T07:47:37.783Z,30.10
2019-05-11T07:50:08.238Z,28.52
2019-05-11T07:52:34.327Z,32.10
2019-05-11T07:55:00.583Z,33.40
2019-05-11T07:57:28.364Z,31.37
2019-05-11T07:59:55.216Z,31.30
2019-05-11T08:02:21.568Z,31.42
2019-05-11T08:04:48.268Z,31.62
2019-05-11T08:07:14.723Z,30.72
2019-05-11T08:09:41.228Z,25.85
2019-05-11T08:12:08.996Z,25.92
2019-05-11T08:14:51.995Z,31.35
2019-05-11T08:17:03.396Z,28.30
2019-05-11T08:19:29.876Z,28.23
2019-05-11T08:21:58.237Z,31.20
2019-05-11T08:24:24.529Z,28.83
2019-05-11T08:26:50.731Z,32.08
2019-05-11T08:29:18.532Z,29.12
2019-05-11T08:31:48.618Z,29.30
2019-05-11T08:36:40.807Z,27.30
2019-05-11T08:39:07.863Z,27.77
2019-05-11T08:41:35.292Z,28.38
2019-05-11T08:44:01.416Z,28.27
2019-05-11T08:46:28.063Z,26.68
2019-05-11T08:48:54.366Z,23.67
2019-05-11T08:51:20.583Z,25.75
2019-05-11T08:53:48.038Z,24.57
2019-05-11T08:56:14.740Z,21.30
2019-05-11T08:58:40.951Z,23.67
2019-05-11T09:01:08.847Z,23.38
2019-05-11T09:03:35.499Z,26.55
2019-05-11T09:06:01.610Z,25.50
2019-05-11T09:08:28.458Z,22.67
2019-05-11T09:10:54.648Z,20.15
2019-05-11T09:13:20.781Z,18.37
2019-05-11T09:15:48.402Z,17.82
2019-05-11T09:18:14.951Z,19.95
2019-05-11T09:20:41.151Z,18.98
2019-05-11T09:23:08.254Z,16.87
2019-05-11T09:25:34.796Z,17.45
2019-05-11T09:28:00.909Z,19.02
2019-05-11T09:30:28.798Z,17.10
2019-05-11T09:32:55.076Z,15.55
2019-05-11T09:35:21.338Z,17.73
2019-05-11T09:37:48.455Z,17.92
2019-05-11T09:40:15.304Z,15.90
2019-05-11T09:42:41.517Z,16.23
2019-05-11T09:45:08.371Z,16.87
2019-05-11T09:47:34.593Z,19.32
2019-05-11T09:50:00.840Z,19.15
2019-05-11T09:52:32.243Z,18.67
2019-05-11T09:54:58.002Z,18.40
2019-05-11T09:57:24.410Z,17.35
2019-05-11T09:59:50.620Z,16.10
2019-05-11T10:02:20.411Z,14.93
2019-05-11T10:04:44.793Z,13.05
2019-05-11T10:07:11.366Z,14.10
2019-05-11T10:09:38.343Z,12.73
2019-05-11T10:12:05.014Z,12.93
2019-05-11T10:14:31.119Z,11.95
2019-05-11T10:16:58.442Z,10.10
2019-05-11T10:19:25.074Z,9.83
2019-05-11T10:21:51.446Z,10.40
2019-05-11T10:24:17.844Z,8.93
2019-05-11T10:26:44.467Z,8.30
2019-05-11T10:29:10.713Z,11.85
2019-05-11T10:31:38.579Z,9.38
2019-05-11T10:34:05.145Z,10.98
2019-05-11T10:36:31.414Z,10.58
2019-05-11T10:38:58.794Z,9.83
2019-05-11T10:41:25.470Z,10.13
2019-05-11T10:43:51.704Z,8.73
2019-05-11T10:46:23.080Z,10.38
2019-05-11T10:48:48.351Z,9.20
2019-05-11T10:51:14.395Z,9.58
2019-05-11T10:53:40.774Z,8.78
2019-05-11T10:56:08.778Z,8.15
2019-05-11T10:58:37.662Z,7.45
2019-05-11T11:01:03.649Z,7.10
2019-05-11T11:03:30.161Z,8.20
2019-05-11T11:05:58.052Z,9.28
2019-05-11T11:08:24.670Z,8.93
2019-05-11T11:10:50.803Z,9.13
2019-05-11T11:13:18.933Z,9.70
2019-05-11T11:15:45.451Z,8.18
2019-05-11T11:18:12.066Z,7.42
2019-05-11T11:20:38.542Z,8.00
2019-05-11T11:23:05.421Z,7.83
2019-05-11T11:25:31.582Z,8.40
2019-05-11T11:27:57.961Z,8.63
2019-05-11T11:30:24.682Z,7.10
2019-05-11T11:32:51.063Z,7.30
2019-05-11T11:35:18.721Z,7.37
2019-05-11T11:37:47.730Z,8.95
2019-05-11T11:40:17.617Z,7.17
2019-05-11T11:42:43.762Z,8.10
2019-05-11T11:45:11.471Z,7.53
2019-05-11T11:47:38.562Z,6.97
2019-05-11T11:50:09.167Z,8.30
2019-05-11T11:52:38.105Z,7.78
2019-05-11T11:55:10.306Z,7.85
2019-05-11T11:57:38.036Z,7.33
2019-05-11T12:00:09.189Z,8.25
2019-05-11T12:02:35.346Z,7.75
2019-05-11T12:05:03.346Z,8.18
2019-05-11T12:07:29.822Z,6.67
2019-05-11T12:09:58.583Z,6.10
2019-05-11T12:12:24.351Z,5.00
2019-05-11T12:14:50.967Z,5.25
2019-05-11T12:17:18.239Z,5.65
2019-05-11T12:19:44.657Z,6.10
2019-05-11T12:22:10.938Z,8.33
2019-05-11T12:24:37.635Z,8.73
2019-05-11T12:27:04.178Z,7.87
2019-05-11T12:29:30.784Z,7.22
2019-05-11T12:31:59.027Z,8.03
2019-05-11T12:34:25.294Z,6.78
2019-05-11T12:36:51.530Z,9.48
2019-05-11T12:39:19.195Z,8.33
2019-05-11T12:41:47.794Z,8.93
2019-05-11T12:44:13.932Z,9.03
2019-05-11T12:46:40.136Z,9.80
2019-05-11T12:49:07.848Z,10.25
2019-05-11T12:51:34.300Z,8.00
2019-05-11T12:54:00.487Z,7.25
2019-05-11T12:56:27.744Z,6.60
2019-05-11T12:58:54.174Z,6.83
2019-05-11T13:01:20.399Z,6.20
2019-05-11T13:03:49.222Z,5.75
2019-05-11T13:06:15.398Z,6.65
2019-05-11T13:08:41.992Z,5.95
2019-05-11T13:11:08.550Z,6.35
2019-05-11T13:13:34.687Z,6.87
2019-05-11T13:16:01.013Z,6.67
2019-05-11T13:18:27.945Z,6.08
2019-05-11T13:20:54.310Z,5.10
2019-05-11T13:23:20.502Z,6.42
2019-05-11T13:25:48.045Z,6.83
2019-05-11T13:28:14.617Z,6.35
2019-05-11T13:30:40.906Z,6.20
2019-05-11T13:33:08.587Z,5.83
2019-05-11T13:35:37.537Z,5.33
2019-05-11T13:38:03.692Z,4.62
2019-05-11T13:40:29.873Z,5.78
2019-05-11T13:42:58.083Z,5.58
2019-05-11T13:45:24.367Z,5.20
2019-05-11T13:47:55.457Z,4.80
2019-05-11T13:50:18.879Z,4.62
2019-05-11T13:52:45.115Z,4.25
2019-05-11T13:55:11.692Z,3.72
2019-05-11T13:57:38.939Z,5.20
2019-05-11T14:00:08.440Z,5.45
2019-05-11T14:02:34.780Z,4.25
2019-05-11T14:05:00.992Z,4.22
2019-05-11T14:07:27.655Z,5.00
2019-05-11T14:09:54.025Z,5.67
2019-05-11T14:12:20.269Z,4.37
2019-05-11T14:14:48.080Z,4.95
2019-05-11T14:17:14.379Z,5.35
2019-05-11T14:19:40.616Z,5.92
2019-05-11T14:22:08.627Z,5.05
2019-05-11T14:24:34.851Z,4.62
2019-05-11T14:27:00.978Z,5.22
2019-05-11T14:29:28.369Z,6.20
2019-05-11T14:31:55.042Z,5.60
2019-05-11T14:34:21.285Z,5.62
2019-05-11T14:36:48.028Z,5.05
2019-05-11T14:39:14.515Z,5.72
2019-05-11T14:41:40.750Z,6.33
2019-05-11T14:44:08.835Z,6.08
2019-05-11T14:46:34.962Z,4.70
2019-05-11T14:49:01.075Z,4.42
2019-05-11T14:51:28.270Z,3.12
2019-05-11T14:53:56.674Z,4.65
2019-05-11T14:56:22.763Z,3.50
2019-05-11T14:58:49.376Z,3.55
2019-05-11T15:01:18.091Z,3.27
2019-05-11T15:03:43.878Z,3.10
2019-05-11T15:06:10.014Z,2.85
2019-05-11T15:08:38.548Z,2.60
2019-05-11T15:11:04.337Z,2.80
2019-05-11T15:13:30.538Z,2.83
2019-05-11T15:15:58.539Z,2.62
2019-05-11T15:18:37.928Z,2.60
2019-05-11T15:20:52.707Z,2.47
2019-05-11T15:23:18.942Z,1.80
2019-05-11T15:25:45.058Z,1.70
2019-05-11T15:28:11.163Z,1.90
2019-05-11T15:30:38.465Z,2.12
2019-05-11T15:33:04.685Z,3.00
2019-05-11T15:35:31.025Z,3.52
2019-05-11T15:37:58.252Z,3.42
2019-05-11T15:40:27.775Z,3.47
2019-05-11T15:42:53.846Z,4.33
2019-05-11T15:45:20.078Z,5.22
2019-05-11T15:47:48.406Z,4.22
2019-05-11T15:50:15.903Z,3.80
2019-05-11T15:52:42.007Z,3.33
2019-05-11T15:55:09.510Z,3.83
2019-05-11T15:57:35.763Z,4.30
2019-05-11T16:00:04.069Z,3.70
2019-05-11T16:02:30.300Z,3.20
2019-05-11T16:04:58.251Z,3.70
2019-05-11T16:07:24.495Z,5.65
2019-05-11T16:09:50.914Z,4.92
2019-05-11T16:12:18.178Z,4.70
2019-05-11T16:14:44.910Z,4.92
2019-05-11T16:17:11.151Z,4.12
2019-05-11T16:19:38.028Z,4.40
2019-05-11T16:22:05.460Z,4.17
2019-05-11T16:24:31.738Z,4.95
2019-05-11T16:26:58.958Z,4.53
2019-05-11T16:29:27.960Z,7.37
2019-05-11T16:31:53.313Z,5.35
2019-05-11T16:34:19.545Z,4.58
2019-05-11T16:36:47.931Z,4.47
2019-05-11T16:39:13.914Z,4.55
2019-05-11T16:41:40.157Z,5.83
2019-05-11T16:44:07.834Z,3.77
2019-05-11T16:46:34.592Z,4.00
2019-05-11T16:49:01.949Z,4.58
2019-05-11T16:51:28.543Z,4.45
2019-05-11T16:53:54.933Z,5.75
2019-05-11T16:56:21.145Z,4.90
2019-05-11T16:58:48.457Z,4.55
2019-05-11T17:01:15.213Z,5.28
2019-05-11T17:03:41.458Z,4.20
2019-05-11T17:06:08.283Z,4.03
2019-05-11T17:08:35.061Z,5.42
2019-05-11T17:11:01.305Z,3.12
2019-05-11T17:13:27.531Z,5.22
2019-05-11T17:15:53.885Z,4.83
2019-05-11T17:18:20.217Z,4.50
2019-05-11T17:20:46.913Z,4.10
2019-05-11T17:23:13.150Z,4.10
2019-05-11T17:25:39.413Z,4.40
2019-05-11T17:28:09.248Z,5.17
2019-05-11T17:30:33.713Z,4.17
2019-05-11T17:32:59.992Z,4.22
2019-05-11T17:35:26.240Z,3.72
2019-05-11T17:37:52.461Z,4.50
2019-05-11T17:40:23.105Z,6.37
2019-05-11T17:42:48.047Z,5.12
2019-05-11T17:45:14.613Z,5.37
2019-05-11T17:47:40.898Z,5.30
2019-05-11T17:50:08.129Z,5.50
2019-05-11T17:52:34.538Z,6.15
2019-05-11T17:55:00.745Z,5.67
2019-05-11T17:57:27.788Z,6.95
2019-05-11T17:59:54.433Z,5.60
2019-05-11T18:02:20.760Z,4.62
2019-05-11T18:04:49.189Z,4.15
2019-05-11T18:07:25.081Z,4.70
2019-05-11T18:09:43.158Z,4.17
2019-05-11T18:12:09.857Z,4.58
2019-05-11T18:14:39.362Z,4.37
2019-05-11T18:17:04.600Z,4.00
2019-05-11T18:19:30.822Z,3.70
2019-05-11T18:21:57.760Z,4.00
2019-05-11T18:24:24.109Z,3.70
2019-05-11T18:26:50.461Z,4.28
2019-05-11T18:29:18.214Z,3.87
2019-05-11T18:31:44.549Z,4.15
2019-05-11T18:34:10.810Z,4.28
2019-05-11T18:36:38.229Z,3.87
2019-05-11T18:39:06.496Z,5.72
2019-05-11T18:41:33.355Z,3.50
2019-05-11T18:43:59.622Z,3.00
2019-05-11T18:46:27.887Z,3.47
2019-05-11T18:48:54.221Z,3.75
2019-05-11T18:51:20.518Z,3.60
2019-05-11T18:53:48.265Z,3.37
2019-05-11T18:56:15.454Z,3.83
2019-05-11T18:58:42.028Z,3.60
2019-05-11T19:01:08.633Z,3.80
2019-05-11T19:03:34.901Z,3.67
2019-05-11T19:06:01.249Z,4.08
2019-05-11T19:08:27.983Z,4.35
2019-05-11T19:10:54.813Z,3.05
2019-05-11T19:13:21.062Z,3.42
2019-05-11T19:15:48.745Z,3.60
2019-05-11T19:18:15.557Z,3.08
2019-05-11T19:20:45.820Z,3.33
2019-05-11T19:23:09.902Z,3.80
2019-05-11T19:25:37.523Z,3.55
2019-05-11T19:28:04.158Z,3.37
2019-05-11T19:30:30.510Z,3.60
2019-05-11T19:32:58.895Z,3.50
2019-05-11T19:35:24.816Z,3.33
2019-05-11T19:37:51.048Z,3.85
2019-05-11T19:40:17.308Z,3.40
2019-05-11T19:42:59.260Z,3.47
2019-05-11T19:45:29.349Z,3.33
2019-05-11T19:47:57.790Z,3.05
2019-05-11T19:50:24.116Z,3.58
2019-05-11T19:52:50.327Z,2.72
2019-05-11T19:55:17.893Z,4.15
2019-05-11T19:57:44.717Z,2.75
2019-05-11T20:00:11.951Z,2.87
2019-05-11T20:02:39.065Z,2.58
2019-05-11T20:05:06.018Z,3.47
2019-05-11T20:07:32.314Z,3.25
2019-05-11T20:09:58.560Z,3.70
2019-05-11T20:12:24.986Z,2.62
2019-05-11T20:14:51.457Z,2.80
2019-05-11T20:17:20.689Z,2.67
2019-05-11T20:19:48.910Z,2.77
2019-05-11T20:22:16.412Z,2.67
2019-05-11T20:24:42.690Z,2.35
2019-05-11T20:27:09.020Z,2.30
2019-05-11T20:29:35.299Z,2.58
2019-05-11T20:32:01.537Z,2.42
2019-05-11T20:34:29.010Z,3.33
2019-05-11T20:36:58.537Z,3.30
2019-05-11T20:39:24.569Z,2.60
2019-05-11T20:41:50.802Z,2.10
2019-05-11T20:44:17.948Z,2.58
2019-05-11T20:46:44.835Z,2.47
2019-05-11T20:49:11.479Z,2.45
2019-05-11T20:51:38.112Z,2.30
2019-05-11T20:54:04.772Z,2.52
2019-05-11T20:56:31.079Z,2.85
2019-05-11T20:58:59.336Z,2.27
2019-05-11T21:01:28.332Z,2.20
2019-05-11T21:03:54.662Z,2.15
2019-05-11T21:06:20.899Z,2.47
2019-05-11T21:08:48.260Z,2.33
2019-05-11T21:11:14.882Z,2.33
2019-05-11T21:13:41.724Z,1.92
2019-05-11T21:16:08.631Z,2.25
2019-05-11T21:18:35.258Z,2.45
2019-05-11T21:21:01.851Z,1.95
2019-05-11T21:23:29.006Z,2.17
2019-05-11T21:25:55.554Z,2.20
2019-05-11T21:28:22.166Z,2.65
2019-05-11T21:30:48.854Z,3.15
2019-05-11T21:33:17.754Z,2.77
2019-05-11T21:35:43.885Z,2.42
2019-05-11T21:38:10.390Z,2.37
2019-05-11T21:40:38.109Z,1.95
2019-05-11T21:43:08.520Z,2.80
2019-05-11T21:45:37.553Z,2.10
2019-05-11T21:48:03.497Z,2.40
2019-05-11T21:50:30.106Z,2.58
2019-05-11T21:52:58.783Z,2.45
2019-05-11T21:55:24.801Z,2.87
2019-05-11T21:57:51.283Z,3.45
2019-05-11T22:00:18.969Z,2.52
2019-05-11T22:02:45.384Z,2.00
2019-05-11T22:05:11.767Z,2.58
2019-05-11T22:07:38.717Z,2.67
2019-05-11T22:10:08.876Z,2.35
2019-05-11T22:12:35.317Z,1.98
2019-05-11T22:15:02.458Z,2.98
2019-05-11T22:17:30.817Z,2.10
2019-05-11T22:19:58.484Z,2.92
2019-05-11T22:22:25.649Z,2.40
2019-05-11T22:24:52.869Z,2.42
2019-05-11T22:27:19.517Z,2.70
2019-05-11T22:29:48.382Z,5.83
2019-05-11T22:32:14.437Z,3.05
2019-05-11T22:34:40.760Z,2.65
2019-05-11T22:37:08.645Z,2.42
2019-05-11T22:39:35.188Z,2.60
2019-05-11T22:42:01.806Z,3.15
2019-05-11T22:44:28.474Z,2.30
2019-05-11T22:46:55.088Z,2.70
2019-05-11T22:49:21.757Z,2.85
2019-05-11T22:51:48.453Z,2.58
2019-05-11T22:54:15.021Z,2.55
2019-05-11T22:56:41.641Z,2.62
2019-05-11T22:59:08.422Z,2.70
2019-05-11T23:01:35.021Z,3.58
2019-05-11T23:04:01.549Z,2.70
2019-05-11T23:06:27.830Z,3.12
2019-05-11T23:08:54.430Z,2.52
2019-05-11T23:11:21.103Z,3.80
2019-05-11T23:13:48.007Z,2.33
2019-05-11T23:16:14.778Z,3.20
2019-05-11T23:18:41.381Z,2.75
2019-05-11T23:21:08.732Z,3.02
2019-05-11T23:23:35.479Z,2.80
2019-05-11T23:26:01.732Z,3.05
2019-05-11T23:28:28.931Z,3.05
2019-05-11T23:30:55.433Z,2.67
2019-05-11T23:33:41.539Z,2.58
2019-05-11T23:36:07.994Z,3.08
2019-05-11T23:38:34.566Z,2.90
2019-05-11T23:41:01.321Z,3.30
2019-05-11T23:43:29.991Z,3.02
2019-05-11T23:45:57.752Z,3.05
2019-05-11T23:48:24.274Z,3.20
2019-05-11T23:50:50.524Z,2.70
2019-05-11T23:53:17.793Z,4.45
2019-05-11T23:55:44.731Z,4.85
2019-05-11T23:58:11.452Z,2.95
